Time;durP1;ratioP1;P1;durP2;ratioP2;P2;SDS_P1;SDS_P2;PMS_P1;PMS_P2;Temp;Humidity;BMP_temperature;BMP_pressure;BME280_temperature;BME280_humidity;BME280_pressure;Samples;Min_cycle;Max_cycle;Signal;HPM_P1;HPM_P2
2022/09/04 00:01:49;;;;;;;4.00;3.10;;;;;;;;;;5055390;28;20278;-75
2022/09/04 00:04:25;;;;;;;6.10;3.40;;;;;;;;;;5054509;28;20183;-76
2022/09/04 00:06:58;;;;;;;4.63;3.10;;;;;;;;;;5054815;28;20179;-75
2022/09/04 00:09:30;;;;;;;6.70;3.30;;;;;;;;;;5054943;28;20196;-75
2022/09/04 00:12:04;;;;;;;7.20;3.13;;;;;;;;;;5054559;28;20215;-76
2022/09/04 00:14:37;;;;;;;4.10;3.20;;;;;;;;;;5054284;28;20203;-76
2022/09/04 00:17:09;;;;;;;5.57;3.03;;;;;;;;;;5054553;28;20664;-75
2022/09/04 00:19:42;;;;;;;4.60;3.00;;;;;;;;;;5054087;28;20194;-76
2022/09/04 00:22:19;;;;;;;7.03;3.60;;;;;;;;;;5042205;28;20620;-76
2022/09/04 00:24:51;;;;;;;4.13;3.10;;;;;;;;;;5034474;28;20633;-76
2022/09/04 00:27:24;;;;;;;5.67;3.10;;;;;;;;;;5034409;28;20192;-75
2022/09/04 00:29:55;;;;;;;5.33;3.10;;;;;;;;;;5034286;28;20224;-76
2022/09/04 00:32:35;;;;;;;4.60;3.00;;;;;;;;;;5034266;28;20573;-75
2022/09/04 00:35:06;;;;;;;4.10;2.93;;;;;;;;;;5033874;28;20215;-75
2022/09/04 00:37:37;;;;;;;5.43;3.30;;;;;;;;;;5034166;28;20630;-75
2022/09/04 00:40:08;;;;;;;5.40;2.83;;;;;;;;;;5034181;28;20281;-76
2022/09/04 00:43:05;;;;;;;5.07;2.97;;;;;;;;;;5034140;28;20208;-76
2022/09/04 00:45:40;;;;;;;4.57;2.80;;;;;;;;;;5034411;28;20211;-75
2022/09/04 00:48:18;;;;;;;4.77;2.87;;;;;;;;;;5034129;28;20196;-75
2022/09/04 00:51:03;;;;;;;4.00;2.80;;;;;;;;;;5033704;28;20228;-75
2022/09/04 00:53:38;;;;;;;5.13;2.80;;;;;;;;;;5034225;28;20257;-76
2022/09/04 00:56:16;;;;;;;3.43;2.97;;;;;;;;;;5049151;28;20735;-76
2022/09/04 00:58:55;;;;;;;5.03;3.10;;;;;;;;;;5033880;28;20558;-75
2022/09/04 01:01:25;;;;;;;4.10;3.20;;;;;;;;;;5033397;28;20235;-76
2022/09/04 01:04:05;;;;;;;4.80;3.10;;;;;;;;;;5034118;28;20732;-75
2022/09/04 01:06:36;;;;;;;4.47;2.73;;;;;;;;;;5033696;28;20188;-75
2022/09/04 01:09:18;;;;;;;2.77;2.47;;;;;;;;;;5037895;28;20195;-75
2022/09/04 01:11:52;;;;;;;4.30;2.67;;;;;;;;;;5053064;28;20235;-75
2022/09/04 01:14:28;;;;;;;6.67;2.90;;;;;;;;;;5053453;28;20668;-75
2022/09/04 01:17:03;;;;;;;4.77;2.70;;;;;;;;;;5053466;28;20225;-75
2022/09/04 01:19:40;;;;;;;3.63;2.77;;;;;;;;;;5052969;28;20191;-75
2022/09/04 01:22:15;;;;;;;4.73;2.70;;;;;;;;;;5053633;28;20659;-75
2022/09/04 01:24:52;;;;;;;4.33;2.90;;;;;;;;;;5053725;28;20624;-75
2022/09/04 01:27:25;;;;;;;6.13;2.83;;;;;;;;;;5053937;28;20191;-76
2022/09/04 01:30:02;;;;;;;5.97;2.90;;;;;;;;;;5053729;28;20227;-75
2022/09/04 01:32:36;;;;;;;4.10;2.90;;;;;;;;;;5053547;28;20252;-75
2022/09/04 01:35:09;;;;;;;4.23;2.83;;;;;;;;;;5054105;28;20691;-75
2022/09/04 01:37:46;;;;;;;4.33;2.70;;;;;;;;;;5053696;28;20629;-75
2022/09/04 01:40:22;;;;;;;2.97;2.67;;;;;;;;;;5053590;28;20225;-75
2022/09/04 01:43:06;;;;;;;3.30;2.63;;;;;;;;;;5053537;28;20199;-75
2022/09/04 01:45:43;;;;;;;5.97;2.73;;;;;;;;;;5053602;28;20183;-75
2022/09/04 01:48:14;;;;;;;4.60;2.70;;;;;;;;;;5053395;28;20191;-75
2022/09/04 01:50:44;;;;;;;3.87;2.87;;;;;;;;;;5052975;28;20318;-76
2022/09/04 01:53:15;;;;;;;3.57;2.80;;;;;;;;;;5053398;28;20195;-75
2022/09/04 01:55:46;;;;;;;3.93;2.63;;;;;;;;;;5053397;28;20219;-76
2022/09/04 01:58:26;;;;;;;4.93;2.70;;;;;;;;;;5053304;28;20195;-76
2022/09/04 02:00:58;;;;;;;5.80;3.03;;;;;;;;;;5053202;28;20608;-76
2022/09/04 02:03:28;;;;;;;5.23;2.80;;;;;;;;;;5052956;28;20214;-75
2022/09/04 02:06:01;;;;;;;5.00;2.87;;;;;;;;;;5052662;28;20183;-75
2022/09/04 02:08:44;;;;;;;5.27;2.63;;;;;;;;;;5053269;28;20356;-76
2022/09/04 02:11:15;;;;;;;4.63;2.90;;;;;;;;;;5052991;28;20223;-75
2022/09/04 02:13:55;;;;;;;3.27;2.97;;;;;;;;;;5053031;28;20187;-76
2022/09/04 02:16:29;;;;;;;6.40;3.17;;;;;;;;;;5053166;28;20203;-77
2022/09/04 02:19:01;;;;;;;3.30;2.80;;;;;;;;;;5052944;28;20596;-76
2022/09/04 02:21:32;;;;;;;4.23;2.90;;;;;;;;;;5052869;28;20230;-75
2022/09/04 02:24:05;;;;;;;4.40;2.80;;;;;;;;;;5052957;28;20690;-75
2022/09/04 02:26:37;;;;;;;4.03;2.63;;;;;;;;;;5053077;28;20245;-75
2022/09/04 02:29:12;;;;;;;5.73;3.17;;;;;;;;;;5053228;28;20552;-76
2022/09/04 02:31:44;;;;;;;5.17;2.80;;;;;;;;;;5053206;28;20235;-76
2022/09/04 02:34:16;;;;;;;3.13;2.80;;;;;;;;;;5056390;28;20183;-76
2022/09/04 02:36:48;;;;;;;4.57;2.90;;;;;;;;;;5056671;28;20565;-76
2022/09/04 02:39:26;;;;;;;4.63;3.20;;;;;;;;;;5056499;28;20180;-75
2022/09/04 02:42:02;;;;;;;3.10;2.80;;;;;;;;;;5056929;28;20191;-76
2022/09/04 02:44:40;;;;;;;3.53;2.77;;;;;;;;;;5056576;28;20244;-75
2022/09/04 02:47:13;;;;;;;4.37;2.77;;;;;;;;;;5056397;28;20288;-76
2022/09/04 02:49:48;;;;;;;4.93;3.00;;;;;;;;;;5055776;28;20278;-75
2022/09/04 02:52:23;;;;;;;3.03;2.60;;;;;;;;;;5056184;28;20563;-75
2022/09/04 02:54:57;;;;;;;4.17;3.27;;;;;;;;;;5056183;28;20193;-75
2022/09/04 02:57:33;;;;;;;4.07;3.30;;;;;;;;;;5056227;28;20190;-76
2022/09/04 03:00:11;;;;;;;3.87;3.07;;;;;;;;;;5055657;28;20280;-75
2022/09/04 03:02:44;;;;;;;6.23;3.27;;;;;;;;;;5056038;28;20233;-76
2022/09/04 03:05:17;;;;;;;3.90;3.20;;;;;;;;;;5055882;28;20190;-76
2022/09/04 03:07:47;;;;;;;4.93;3.47;;;;;;;;;;5055734;28;20191;-75
2022/09/04 03:10:17;;;;;;;5.10;3.10;;;;;;;;;;5055450;28;20223;-75
2022/09/04 03:12:47;;;;;;;5.07;3.40;;;;;;;;;;5055139;28;20214;-74
2022/09/04 03:15:22;;;;;;;5.23;3.37;;;;;;;;;;5055466;28;20687;-76
2022/09/04 03:17:57;;;;;;;5.80;3.23;;;;;;;;;;5055758;28;20187;-75
2022/09/04 03:20:26;;;;;;;3.67;3.10;;;;;;;;;;5055279;28;20707;-75
2022/09/04 03:22:58;;;;;;;4.93;3.30;;;;;;;;;;5055503;28;20207;-75
2022/09/04 03:25:35;;;;;;;4.03;3.27;;;;;;;;;;5055482;28;20192;-75
2022/09/04 03:28:04;;;;;;;6.00;3.40;;;;;;;;;;5055179;28;20191;-75
2022/09/04 03:30:35;;;;;;;5.70;3.47;;;;;;;;;;5055100;28;20270;-75
2022/09/04 03:33:07;;;;;;;4.50;3.17;;;;;;;;;;5054860;28;20195;-76
2022/09/04 03:35:38;;;;;;;4.60;3.30;;;;;;;;;;5055081;28;20276;-75
2022/09/04 03:38:13;;;;;;;3.83;3.10;;;;;;;;;;5055089;28;20218;-75
2022/09/04 03:40:42;;;;;;;5.30;3.20;;;;;;;;;;5055256;28;20237;-76
2022/09/04 03:43:18;;;;;;;6.27;3.50;;;;;;;;;;5054740;28;20681;-76
2022/09/04 03:45:51;;;;;;;3.33;3.03;;;;;;;;;;5055238;28;20624;-75
2022/09/04 03:48:26;;;;;;;3.93;3.20;;;;;;;;;;5055103;28;20188;-76
2022/09/04 03:50:57;;;;;;;3.87;2.87;;;;;;;;;;5054627;28;20710;-75
2022/09/04 03:53:30;;;;;;;5.80;3.30;;;;;;;;;;5055029;28;20210;-75
2022/09/04 03:56:07;;;;;;;5.00;3.20;;;;;;;;;;5054778;28;20718;-76
2022/09/04 03:58:37;;;;;;;4.33;3.17;;;;;;;;;;5055008;28;20191;-75
2022/09/04 04:01:12;;;;;;;4.00;3.10;;;;;;;;;;5054834;28;20600;-75
2022/09/04 04:03:52;;;;;;;4.13;3.10;;;;;;;;;;5054587;28;20286;-75
2022/09/04 04:06:24;;;;;;;4.13;3.13;;;;;;;;;;5054721;28;20187;-75
2022/09/04 04:09:09;;;;;;;4.37;3.30;;;;;;;;;;5054678;28;20245;-75
2022/09/04 04:11:45;;;;;;;4.63;3.40;;;;;;;;;;5053214;28;20281;-75
2022/09/04 04:14:22;;;;;;;4.30;3.30;;;;;;;;;;5054534;28;20629;-76
2022/09/04 04:16:59;;;;;;;4.30;3.40;;;;;;;;;;5054764;28;20207;-75
2022/09/04 04:19:39;;;;;;;5.03;3.13;;;;;;;;;;5054258;28;20198;-76
2022/09/04 04:22:29;;;;;;;3.40;3.03;;;;;;;;;;5034255;28;20194;-76
2022/09/04 04:25:18;;;;;;;5.03;3.37;;;;;;;;;;5032600;28;20200;-75
2022/09/04 04:27:51;;;;;;;3.57;3.10;;;;;;;;;;5032826;28;20196;-76
2022/09/04 04:30:21;;;;;;;4.60;3.40;;;;;;;;;;5034285;28;20592;-76
2022/09/04 04:33:08;;;;;;;4.37;3.50;;;;;;;;;;5034390;28;20207;-75
2022/09/04 04:35:43;;;;;;;4.03;3.30;;;;;;;;;;5034041;28;20191;-75
2022/09/04 04:38:19;;;;;;;4.53;3.50;;;;;;;;;;5034286;28;20547;-75
2022/09/04 04:40:58;;;;;;;5.37;3.40;;;;;;;;;;5033794;28;20245;-75
2022/09/04 04:43:31;;;;;;;5.67;3.40;;;;;;;;;;5034045;28;20188;-76
2022/09/04 04:46:03;;;;;;;4.63;3.47;;;;;;;;;;5036319;28;20191;-75
2022/09/04 04:49:04;;;;;;;5.43;3.20;;;;;;;;;;5053732;28;20281;-76
2022/09/04 04:51:42;;;;;;;4.73;3.17;;;;;;;;;;5053446;28;20268;-75
2022/09/04 04:54:17;;;;;;;5.50;3.53;;;;;;;;;;5053885;28;20186;-76
2022/09/04 04:56:50;;;;;;;6.03;3.30;;;;;;;;;;5053070;28;20214;-75
2022/09/04 04:59:23;;;;;;;5.17;3.73;;;;;;;;;;5053904;28;20195;-75
2022/09/04 05:01:59;;;;;;;3.93;3.53;;;;;;;;;;5053667;28;20231;-75
2022/09/04 05:04:36;;;;;;;5.80;3.20;;;;;;;;;;5053913;28;20191;-75
2022/09/04 05:07:11;;;;;;;4.80;3.43;;;;;;;;;;5053683;28;20204;-75
2022/09/04 05:09:44;;;;;;;7.13;3.30;;;;;;;;;;5053682;28;20182;-75
2022/09/04 05:12:17;;;;;;;4.50;3.40;;;;;;;;;;5053261;28;20207;-75
2022/09/04 05:14:49;;;;;;;5.23;3.50;;;;;;;;;;5053409;28;20187;-75
2022/09/04 05:17:21;;;;;;;4.00;3.30;;;;;;;;;;5053631;28;20211;-75
2022/09/04 05:19:52;;;;;;;6.47;3.50;;;;;;;;;;5053502;28;20282;-75
2022/09/04 05:22:26;;;;;;;6.83;3.60;;;;;;;;;;5053669;28;20206;-75
2022/09/04 05:25:06;;;;;;;3.33;3.03;;;;;;;;;;5052303;28;20193;-75
2022/09/04 05:27:55;;;;;;;4.63;3.50;;;;;;;;;;5033690;28;20192;-76
2022/09/04 05:30:28;;;;;;;4.93;3.40;;;;;;;;;;5033374;28;20277;-75
2022/09/04 05:33:01;;;;;;;5.90;3.53;;;;;;;;;;5033607;28;20192;-75
2022/09/04 05:35:33;;;;;;;6.47;3.33;;;;;;;;;;5033682;28;20187;-75
2022/09/04 05:38:06;;;;;;;3.70;3.37;;;;;;;;;;5033319;28;20638;-75
2022/09/04 05:40:40;;;;;;;4.80;3.40;;;;;;;;;;5049017;28;20229;-76
2022/09/04 05:43:16;;;;;;;4.53;3.67;;;;;;;;;;5053348;28;20732;-75
2022/09/04 05:45:49;;;;;;;3.43;3.13;;;;;;;;;;5053714;28;20199;-75
2022/09/04 05:48:22;;;;;;;4.13;3.17;;;;;;;;;;5052888;28;20191;-76
2022/09/04 05:51:09;;;;;;;4.97;3.50;;;;;;;;;;5053130;28;20223;-75
2022/09/04 05:54:00;;;;;;;4.07;3.10;;;;;;;;;;5052891;28;20211;-76
2022/09/04 05:56:49;;;;;;;3.90;3.50;;;;;;;;;;5052773;28;20207;-75
2022/09/04 05:59:33;;;;;;;5.50;3.57;;;;;;;;;;5052848;28;20192;-75
2022/09/04 06:02:09;;;;;;;5.30;3.53;;;;;;;;;;5052972;28;20200;-75
2022/09/04 06:04:52;;;;;;;4.60;3.57;;;;;;;;;;5053216;28;20705;-75
2022/09/04 06:07:25;;;;;;;4.60;3.20;;;;;;;;;;5055453;28;20241;-75
2022/09/04 06:10:00;;;;;;;5.73;3.60;;;;;;;;;;5056599;28;20234;-75
2022/09/04 06:12:34;;;;;;;5.13;3.50;;;;;;;;;;5056606;28;20235;-75
2022/09/04 06:15:21;;;;;;;5.53;3.53;;;;;;;;;;5056382;28;20195;-75
2022/09/04 06:18:01;;;;;;;4.93;3.67;;;;;;;;;;5056765;28;20680;-76
2022/09/04 06:20:37;;;;;;;3.90;3.40;;;;;;;;;;5056716;28;20231;-75
2022/09/04 06:23:24;;;;;;;4.33;3.40;;;;;;;;;;5056644;28;20191;-75
2022/09/04 06:26:01;;;;;;;4.80;3.30;;;;;;;;;;5056585;28;20207;-75
2022/09/04 06:28:40;;;;;;;4.33;3.47;;;;;;;;;;5056351;28;20184;-76
2022/09/04 06:31:13;;;;;;;4.60;3.30;;;;;;;;;;5056501;28;20280;-76
2022/09/04 06:33:50;;;;;;;6.13;3.60;;;;;;;;;;5056245;28;20193;-75
2022/09/04 06:36:42;;;;;;;6.10;3.63;;;;;;;;;;5056518;28;20199;-76
2022/09/04 06:39:16;;;;;;;3.97;3.40;;;;;;;;;;5050878;28;20211;-76
2022/09/04 06:41:54;;;;;;;3.50;3.20;;;;;;;;;;5055988;28;20253;-76
2022/09/04 06:44:27;;;;;;;5.80;3.50;;;;;;;;;;5056585;28;20625;-75
2022/09/04 06:47:00;;;;;;;4.63;3.20;;;;;;;;;;5056063;28;20198;-75
2022/09/04 06:49:34;;;;;;;4.70;3.50;;;;;;;;;;5056204;28;20617;-76
2022/09/04 06:52:11;;;;;;;3.73;3.40;;;;;;;;;;5056472;28;20691;-76
2022/09/04 06:54:47;;;;;;;6.03;3.40;;;;;;;;;;5035934;28;20184;-76
2022/09/04 06:57:31;;;;;;;4.67;3.20;;;;;;;;;;5052280;28;20213;-75
2022/09/04 07:00:03;;;;;;;6.00;3.57;;;;;;;;;;5055974;28;20222;-75
2022/09/04 07:02:48;;;;;;;4.13;3.23;;;;;;;;;;5036014;28;20203;-75
2022/09/04 07:05:20;;;;;;;5.70;3.37;;;;;;;;;;5035838;28;20187;-75
2022/09/04 07:07:52;;;;;;;4.37;3.40;;;;;;;;;;5035502;28;20634;-75
2022/09/04 07:10:23;;;;;;;3.90;3.10;;;;;;;;;;5054323;28;20578;-76
2022/09/04 07:13:01;;;;;;;3.57;3.27;;;;;;;;;;5055461;28;20215;-75
2022/09/04 07:15:48;;;;;;;3.97;3.43;;;;;;;;;;5055716;28;20697;-75
2022/09/04 07:18:24;;;;;;;3.90;3.13;;;;;;;;;;5054598;28;20254;-76
2022/09/04 07:20:58;;;;;;;4.30;3.47;;;;;;;;;;5055533;28;20296;-76
2022/09/04 07:23:32;;;;;;;3.50;3.20;;;;;;;;;;5055259;28;20191;-75
2022/09/04 07:26:07;;;;;;;5.07;3.60;;;;;;;;;;5055188;28;20184;-75
2022/09/04 07:28:45;;;;;;;3.83;3.30;;;;;;;;;;5055092;28;20180;-75
2022/09/04 07:31:18;;;;;;;4.95;3.20;;;;;;;;;;5055260;28;20222;-75
2022/09/04 07:33:51;;;;;;;6.43;3.20;;;;;;;;;;5055374;28;20667;-75
2022/09/04 07:36:21;;;;;;;5.00;3.30;;;;;;;;;;5055274;28;20217;-76
2022/09/04 07:39:00;;;;;;;4.85;3.47;;;;;;;;;;5054824;28;20683;-75
2022/09/04 07:41:33;;;;;;;5.65;3.05;;;;;;;;;;5055206;28;20249;-76
2022/09/04 07:44:07;;;;;;;4.35;3.20;;;;;;;;;;5054868;28;20241;-76
2022/09/04 07:46:40;;;;;;;3.92;3.50;;;;;;;;;;5034865;28;20596;-75
2022/09/04 07:49:12;;;;;;;4.32;3.25;;;;;;;;;;5039017;28;20223;-75
2022/09/04 07:51:43;;;;;;;3.55;3.10;;;;;;;;;;5054487;28;20219;-75
2022/09/04 07:54:28;;;;;;;3.60;3.10;;;;;;;;;;5054574;28;20218;-76
2022/09/04 07:57:11;;;;;;;4.75;3.33;;;;;;;;;;5055303;28;20655;-76
2022/09/04 08:00:00;;;;;;;5.80;3.40;;;;;;;;;;5054385;28;20285;-76
2022/09/04 08:02:37;;;;;;;5.60;3.47;;;;;;;;;;5050171;28;20777;-76
2022/09/04 08:05:21;;;;;;;4.13;3.30;;;;;;;;;;5054364;28;20195;-76
2022/09/04 08:08:02;;;;;;;5.03;3.00;;;;;;;;;;5054682;28;20198;-75
2022/09/04 08:10:32;;;;;;;4.45;3.40;;;;;;;;;;5054097;28;20704;-75
2022/09/04 08:13:08;;;;;;;3.63;3.33;;;;;;;;;;5054301;28;20633;-76
2022/09/04 08:15:42;;;;;;;4.65;3.40;;;;;;;;;;5054111;28;20191;-76
2022/09/04 08:18:25;;;;;;;3.45;2.97;;;;;;;;;;5054404;28;20211;-75
2022/09/04 08:21:00;;;;;;;4.50;3.10;;;;;;;;;;5053781;28;20230;-76
2022/09/04 08:23:37;;;;;;;3.80;2.88;;;;;;;;;;5053738;28;20236;-76
2022/09/04 08:26:13;;;;;;;6.25;3.22;;;;;;;;;;5053700;28;20249;-76
2022/09/04 08:28:56;;;;;;;3.45;3.08;;;;;;;;;;5054387;28;20183;-76
2022/09/04 08:31:30;;;;;;;3.90;3.33;;;;;;;;;;5053287;28;20305;-76
2022/09/04 08:34:23;;;;;;;4.93;3.10;;;;;;;;;;5053818;28;20244;-75
2022/09/04 08:36:56;;;;;;;3.40;3.10;;;;;;;;;;4998434;28;20344;-75
2022/09/04 08:39:31;;;;;;;4.28;3.30;;;;;;;;;;5053956;28;20217;-73
2022/09/04 08:42:24;;;;;;;4.90;3.30;;;;;;;;;;5053646;28;20207;-75
2022/09/04 08:45:12;;;;;;;5.65;3.13;;;;;;;;;;5053610;28;20214;-75
2022/09/04 08:47:59;;;;;;;5.68;3.20;;;;;;;;;;5053671;28;20210;-75
2022/09/04 08:50:50;;;;;;;3.72;2.97;;;;;;;;;;5053845;28;20250;-75
2022/09/04 08:53:33;;;;;;;4.15;3.10;;;;;;;;;;5053860;28;20210;-76
2022/09/04 08:56:20;;;;;;;4.50;2.97;;;;;;;;;;5054382;28;20608;-75
2022/09/04 08:59:06;;;;;;;5.18;3.35;;;;;;;;;;5053742;28;20247;-76
2022/09/04 09:01:51;;;;;;;5.13;3.25;;;;;;;;;;5053753;28;20223;-76
2022/09/04 09:04:35;;;;;;;3.60;3.13;;;;;;;;;;5053198;28;20202;-76
2022/09/04 09:07:18;;;;;;;5.63;3.08;;;;;;;;;;5041667;28;20210;-75
2022/09/04 09:10:09;;;;;;;5.03;2.97;;;;;;;;;;5053033;28;20257;-76
2022/09/04 09:13:01;;;;;;;5.90;3.08;;;;;;;;;;5053336;28;20614;-76
2022/09/04 09:15:48;;;;;;;3.33;3.03;;;;;;;;;;5053727;28;20188;-76
2022/09/04 09:18:25;;;;;;;5.03;3.00;;;;;;;;;;5053462;28;20212;-76
2022/09/04 09:20:57;;;;;;;3.22;2.65;;;;;;;;;;5053400;28;20765;-76
2022/09/04 09:23:34;;;;;;;4.82;3.00;;;;;;;;;;5053514;28;20187;-76
2022/09/04 09:26:14;;;;;;;4.13;3.03;;;;;;;;;;5053188;28;20210;-76
2022/09/04 09:29:03;;;;;;;4.18;2.80;;;;;;;;;;5051878;28;20191;-75
2022/09/04 09:32:02;;;;;;;5.40;3.08;;;;;;;;;;5051590;28;20280;-75
2022/09/04 09:34:49;;;;;;;3.67;3.08;;;;;;;;;;5053350;28;20593;-76
2022/09/04 09:37:29;;;;;;;4.10;3.38;;;;;;;;;;5053267;28;20184;-75
2022/09/04 09:40:04;;;;;;;4.50;3.15;;;;;;;;;;5052551;28;20285;-76
2022/09/04 09:42:43;;;;;;;4.07;2.97;;;;;;;;;;5056034;28;20228;-76
2022/09/04 09:45:30;;;;;;;4.18;2.95;;;;;;;;;;5057185;28;20648;-76
2022/09/04 09:48:13;;;;;;;4.05;2.95;;;;;;;;;;5056763;28;20229;-76
2022/09/04 09:50:49;;;;;;;5.57;2.90;;;;;;;;;;5045126;28;20226;-76
2022/09/04 09:53:35;;;;;;;4.03;3.05;;;;;;;;;;5057047;28;20194;-75
2022/09/04 09:56:14;;;;;;;8.93;3.38;;;;;;;;;;5057085;28;20203;-76
2022/09/04 09:58:59;;;;;;;4.40;2.90;;;;;;;;;;5056894;28;20190;-75
2022/09/04 10:01:39;;;;;;;2.80;2.47;;;;;;;;;;5054885;28;20850;-76
2022/09/04 10:04:27;;;;;;;3.17;2.70;;;;;;;;;;5057117;28;20664;-76
2022/09/04 10:07:18;;;;;;;5.10;3.05;;;;;;;;;;5056882;28;20200;-76
2022/09/04 10:10:10;;;;;;;5.10;2.85;;;;;;;;;;5056970;28;20648;-76
2022/09/04 10:13:15;;;;;;;5.28;2.88;;;;;;;;;;5018759;28;20216;-77
2022/09/04 10:15:56;;;;;;;3.42;3.13;;;;;;;;;;5056304;28;20199;-76
2022/09/04 10:18:58;;;;;;;4.68;2.53;;;;;;;;;;5056198;28;20191;-76
2022/09/04 10:21:44;;;;;;;2.58;2.25;;;;;;;;;;5056110;28;20218;-76
2022/09/04 10:24:26;;;;;;;4.80;2.90;;;;;;;;;;5056604;28;20543;-76
2022/09/04 10:27:21;;;;;;;3.42;2.58;;;;;;;;;;5056762;28;20632;-76
2022/09/04 10:30:08;;;;;;;5.45;2.60;;;;;;;;;;5056355;28;20188;-76
2022/09/04 10:32:46;;;;;;;3.63;2.70;;;;;;;;;;5056574;28;20187;-76
2022/09/04 10:35:24;;;;;;;4.45;2.67;;;;;;;;;;5056531;28;20608;-76
2022/09/04 10:38:07;;;;;;;4.90;2.85;;;;;;;;;;5055957;28;20188;-76
2022/09/04 10:40:38;;;;;;;5.38;2.85;;;;;;;;;;5056346;28;20231;-76
2022/09/04 10:43:29;;;;;;;3.67;2.40;;;;;;;;;;5056315;28;20206;-76
2022/09/04 10:46:02;;;;;;;4.65;2.78;;;;;;;;;;5036654;28;20274;-76
2022/09/04 10:48:47;;;;;;;4.07;2.60;;;;;;;;;;5036328;28;20559;-76
2022/09/04 10:51:33;;;;;;;4.25;2.50;;;;;;;;;;5036073;28;20228;-76
2022/09/04 10:54:19;;;;;;;3.42;2.55;;;;;;;;;;5031235;28;20207;-76
2022/09/04 10:56:54;;;;;;;3.38;2.75;;;;;;;;;;5036180;28;20188;-77
2022/09/04 10:59:41;;;;;;;4.13;2.70;;;;;;;;;;5035751;28;20210;-77
2022/09/04 11:02:31;;;;;;;5.18;2.92;;;;;;;;;;5032395;28;20211;-76
2022/09/04 11:05:19;;;;;;;4.32;2.60;;;;;;;;;;5035658;28;20191;-76
2022/09/04 11:08:11;;;;;;;5.80;2.75;;;;;;;;;;5051082;28;20194;-76
2022/09/04 11:10:54;;;;;;;3.88;2.92;;;;;;;;;;5055535;28;20708;-76
2022/09/04 11:13:50;;;;;;;3.40;2.92;;;;;;;;;;5055731;28;20269;-76
2022/09/04 11:16:28;;;;;;;4.68;2.70;;;;;;;;;;5055444;28;20198;-77
2022/09/04 11:19:14;;;;;;;4.70;2.42;;;;;;;;;;5055829;28;20206;-76
2022/09/04 11:21:58;;;;;;;4.30;3.10;;;;;;;;;;5055169;28;20277;-76
2022/09/04 11:24:41;;;;;;;5.20;2.90;;;;;;;;;;5054888;28;20202;-75
2022/09/04 11:27:25;;;;;;;4.68;2.53;;;;;;;;;;5055419;28;20378;-77
2022/09/04 11:29:58;;;;;;;4.38;2.70;;;;;;;;;;5055322;28;20225;-76
2022/09/04 11:32:41;;;;;;;2.92;2.63;;;;;;;;;;5054931;28;20187;-77
2022/09/04 11:35:28;;;;;;;2.72;2.50;;;;;;;;;;5046853;28;20577;-77
2022/09/04 11:38:02;;;;;;;2.85;2.65;;;;;;;;;;5054947;28;20209;-76
2022/09/04 11:40:49;;;;;;;2.78;2.40;;;;;;;;;;5055605;28;20246;-77
2022/09/04 11:43:26;;;;;;;4.25;2.70;;;;;;;;;;5055002;28;20654;-76
2022/09/04 11:46:09;;;;;;;3.00;2.58;;;;;;;;;;5055001;28;20186;-77
2022/09/04 11:48:45;;;;;;;5.78;2.42;;;;;;;;;;5055230;28;20191;-77
2022/09/04 11:51:22;;;;;;;5.88;2.67;;;;;;;;;;5055492;28;20226;-77
2022/09/04 11:54:03;;;;;;;3.42;2.60;;;;;;;;;;5054763;28;20213;-77
2022/09/04 11:56:44;;;;;;;4.13;2.75;;;;;;;;;;5055094;28;20209;-76
2022/09/04 11:59:28;;;;;;;2.83;2.22;;;;;;;;;;5054728;28;20229;-76
2022/09/04 12:02:18;;;;;;;3.63;2.20;;;;;;;;;;5054785;28;20222;-76
2022/09/04 12:04:56;;;;;;;2.78;2.45;;;;;;;;;;5045079;28;20206;-76
2022/09/04 12:07:37;;;;;;;3.00;2.70;;;;;;;;;;5053228;28;20221;-76
2022/09/04 12:10:20;;;;;;;3.83;2.85;;;;;;;;;;5054474;28;20261;-77
2022/09/04 12:12:57;;;;;;;6.20;3.08;;;;;;;;;;5054618;28;20671;-76
2022/09/04 12:15:43;;;;;;;5.38;3.20;;;;;;;;;;5054473;28;20218;-77
2022/09/04 12:18:35;;;;;;;4.55;2.80;;;;;;;;;;5054566;28;20640;-76
2022/09/04 12:21:34;;;;;;;6.43;2.97;;;;;;;;;;5054441;28;20235;-76
2022/09/04 12:24:24;;;;;;;2.85;2.45;;;;;;;;;;5041927;28;20664;-76
2022/09/04 12:27:26;;;;;;;4.80;2.72;;;;;;;;;;5054544;28;20602;-76
2022/09/04 12:30:05;;;;;;;4.50;2.67;;;;;;;;;;5032265;28;20647;-77
2022/09/04 12:32:51;;;;;;;4.25;2.97;;;;;;;;;;5032135;28;20192;-76
2022/09/04 12:35:34;;;;;;;2.70;2.50;;;;;;;;;;5046526;28;20269;-77
2022/09/04 12:38:17;;;;;;;3.00;2.63;;;;;;;;;;5053917;28;20180;-76
2022/09/04 12:40:53;;;;;;;5.45;2.63;;;;;;;;;;5053892;28;20672;-76
2022/09/04 12:43:28;;;;;;;3.40;2.78;;;;;;;;;;5053874;28;20187;-75
2022/09/04 12:46:04;;;;;;;3.55;2.28;;;;;;;;;;5054162;28;20189;-76
2022/09/04 12:48:36;;;;;;;4.80;2.75;;;;;;;;;;5054129;28;20600;-76
2022/09/04 12:51:08;;;;;;;3.08;2.45;;;;;;;;;;5054459;28;20215;-76
2022/09/04 12:53:44;;;;;;;5.00;2.90;;;;;;;;;;5054171;28;20562;-76
2022/09/04 12:56:25;;;;;;;7.50;2.70;;;;;;;;;;5054076;28;20210;-76
2022/09/04 12:59:06;;;;;;;4.00;2.63;;;;;;;;;;5054203;28;20248;-77
2022/09/04 13:01:48;;;;;;;4.47;2.40;;;;;;;;;;5053795;28;20676;-77
2022/09/04 13:04:21;;;;;;;3.50;2.80;;;;;;;;;;5053569;28;20183;-76
2022/09/04 13:07:01;;;;;;;4.10;2.65;;;;;;;;;;5053971;28;20246;-76
2022/09/04 13:09:37;;;;;;;4.28;2.60;;;;;;;;;;5053361;28;20191;-76
2022/09/04 13:12:11;;;;;;;6.75;2.80;;;;;;;;;;5053505;28;20218;-77
2022/09/04 13:14:56;;;;;;;2.90;2.58;;;;;;;;;;5053608;28;20690;-77
2022/09/04 13:17:28;;;;;;;3.08;2.47;;;;;;;;;;5052983;28;20188;-77
2022/09/04 13:20:04;;;;;;;3.35;2.60;;;;;;;;;;5053426;28;20223;-76
2022/09/04 13:22:38;;;;;;;4.45;2.65;;;;;;;;;;5053341;28;20203;-76
2022/09/04 13:25:11;;;;;;;4.18;2.40;;;;;;;;;;5053537;28;20651;-76
2022/09/04 13:27:56;;;;;;;3.50;2.40;;;;;;;;;;5052831;28;20198;-76
2022/09/04 13:30:25;;;;;;;4.60;2.53;;;;;;;;;;5053512;28;20219;-76
2022/09/04 13:33:15;;;;;;;3.35;2.25;;;;;;;;;;5053495;28;20209;-76
2022/09/04 13:35:52;;;;;;;6.03;2.70;;;;;;;;;;5053191;28;20691;-77
2022/09/04 13:38:34;;;;;;;3.25;2.55;;;;;;;;;;5053469;28;20187;-77
2022/09/04 13:41:14;;;;;;;3.53;2.42;;;;;;;;;;5053200;28;20234;-76
2022/09/04 13:43:55;;;;;;;3.15;2.45;;;;;;;;;;5053174;28;20191;-76
2022/09/04 13:46:28;;;;;;;2.42;2.30;;;;;;;;;;5052740;28;20191;-76
2022/09/04 13:48:59;;;;;;;4.60;2.42;;;;;;;;;;5053108;28;20191;-76
2022/09/04 13:51:31;;;;;;;3.13;2.50;;;;;;;;;;5052880;28;20226;-77
2022/09/04 13:54:05;;;;;;;3.67;2.47;;;;;;;;;;5053057;28;20191;-76
2022/09/04 13:56:34;;;;;;;5.05;2.67;;;;;;;;;;5052890;28;20187;-77
2022/09/04 13:59:08;;;;;;;3.60;2.50;;;;;;;;;;5052850;28;20203;-77
2022/09/04 14:01:38;;;;;;;3.30;2.60;;;;;;;;;;5053358;28;20227;-76
2022/09/04 14:04:10;;;;;;;4.10;2.50;;;;;;;;;;5053331;28;20209;-76
2022/09/04 14:06:39;;;;;;;2.65;2.45;;;;;;;;;;5052357;28;20192;-76
2022/09/04 14:09:07;;;;;;;3.55;2.65;;;;;;;;;;5053194;28;20210;-77
2022/09/04 14:11:58;;;;;;;3.40;2.60;;;;;;;;;;5052577;28;20281;-77
2022/09/04 14:14:42;;;;;;;4.05;2.63;;;;;;;;;;5053329;28;20188;-76
2022/09/04 14:17:11;;;;;;;2.83;2.22;;;;;;;;;;5043670;28;20203;-72
2022/09/04 14:19:46;;;;;;;3.38;2.63;;;;;;;;;;5052251;28;20214;-72
2022/09/04 14:22:22;;;;;;;3.30;2.40;;;;;;;;;;5049359;28;20284;-71
2022/09/04 14:24:59;;;;;;;2.47;2.20;;;;;;;;;;5052191;28;20203;-72
2022/09/04 14:27:38;;;;;;;6.25;2.50;;;;;;;;;;5051491;28;20203;-72
2022/09/04 14:30:12;;;;;;;3.42;2.35;;;;;;;;;;5055243;28;20215;-72
2022/09/04 14:32:46;;;;;;;4.22;2.75;;;;;;;;;;5050477;28;20679;-72
2022/09/04 14:35:18;;;;;;;6.68;2.42;;;;;;;;;;5052253;28;20207;-72
2022/09/04 14:37:56;;;;;;;2.25;2.05;;;;;;;;;;5053093;28;20206;-72
2022/09/04 14:40:29;;;;;;;4.78;2.83;;;;;;;;;;5055095;28;20235;-72
2022/09/04 14:43:03;;;;;;;2.58;2.38;;;;;;;;;;5054548;28;20227;-71
2022/09/04 14:45:50;;;;;;;5.13;2.13;;;;;;;;;;5055708;28;20202;-72
2022/09/04 14:48:22;;;;;;;5.45;2.55;;;;;;;;;;5050703;28;20694;-72
2022/09/04 14:50:53;;;;;;;3.17;2.65;;;;;;;;;;5054116;28;20225;-72
2022/09/04 14:53:24;;;;;;;5.20;2.40;;;;;;;;;;5055890;28;20629;-72
2022/09/04 14:56:12;;;;;;;2.55;2.35;;;;;;;;;;5053002;28;20207;-72
2022/09/04 14:58:42;;;;;;;4.68;2.55;;;;;;;;;;5051337;28;20244;-72
2022/09/04 15:01:19;;;;;;;3.88;2.38;;;;;;;;;;5050095;28;20223;-73
2022/09/04 15:03:51;;;;;;;3.42;2.47;;;;;;;;;;5054028;28;20202;-72
2022/09/04 15:06:21;;;;;;;2.58;2.38;;;;;;;;;;5053859;28;20277;-72
2022/09/04 15:08:55;;;;;;;4.38;2.20;;;;;;;;;;5042449;28;20620;-72
2022/09/04 15:11:29;;;;;;;5.80;2.50;;;;;;;;;;5048809;28;20243;-72
2022/09/04 15:14:03;;;;;;;3.40;2.55;;;;;;;;;;5049484;28;20640;-73
2022/09/04 15:16:45;;;;;;;2.47;2.28;;;;;;;;;;5053529;28;20206;-72
2022/09/04 15:19:25;;;;;;;3.05;2.40;;;;;;;;;;5054703;28;20206;-72
2022/09/04 15:21:58;;;;;;;3.33;2.00;;;;;;;;;;5048660;28;20227;-72
2022/09/04 15:24:28;;;;;;;3.47;2.30;;;;;;;;;;5054768;28;20191;-73
2022/09/04 15:27:00;;;;;;;2.92;2.50;;;;;;;;;;5054292;28;20199;-72
2022/09/04 15:29:33;;;;;;;3.47;2.53;;;;;;;;;;5054865;28;20207;-73
2022/09/04 15:32:06;;;;;;;3.25;2.47;;;;;;;;;;5054678;28;20187;-72
2022/09/04 15:34:41;;;;;;;4.75;2.47;;;;;;;;;;5055040;28;20286;-72
2022/09/04 15:37:13;;;;;;;2.92;2.25;;;;;;;;;;5054160;28;20725;-72
2022/09/04 15:39:47;;;;;;;3.53;2.42;;;;;;;;;;5053504;28;20668;-72
2022/09/04 15:42:32;;;;;;;2.78;2.50;;;;;;;;;;5053653;28;20225;-72
2022/09/04 15:45:05;;;;;;;4.25;2.47;;;;;;;;;;5055936;28;20214;-72
2022/09/04 15:47:50;;;;;;;3.03;2.72;;;;;;;;;;5053573;28;20261;-72